sensor_id;sensor_type;location;lat;lon;timestamp;P1;durP1;ratioP1;P2;durP2;ratioP2
41514;SDS011;27247;48.020;16.720;2023-06-14T00:01:59;7.38;;;4.40;;
41514;SDS011;27247;48.020;16.720;2023-06-14T00:06:10;6.13;;;3.97;;
41514;SDS011;27247;48.020;16.720;2023-06-14T00:10:20;7.77;;;4.43;;
41514;SDS011;27247;48.020;16.720;2023-06-14T00:14:30;8.23;;;4.63;;
41514;SDS011;27247;48.020;16.720;2023-06-14T00:34:01;6.90;;;4.53;;
41514;SDS011;27247;48.020;16.720;2023-06-14T00:38:11;6.97;;;3.88;;
41514;SDS011;27247;48.020;16.720;2023-06-14T00:42:25;4.83;;;3.90;;
41514;SDS011;27247;48.020;16.720;2023-06-14T00:46:36;6.55;;;4.20;;
41514;SDS011;27247;48.020;16.720;2023-06-14T00:50:46;5.27;;;3.93;;
41514;SDS011;27247;48.020;16.720;2023-06-14T00:54:59;5.93;;;4.38;;
41514;SDS011;27247;48.020;16.720;2023-06-14T00:59:09;7.20;;;4.88;;
41514;SDS011;27247;48.020;16.720;2023-06-14T01:03:21;7.05;;;4.63;;
41514;SDS011;27247;48.020;16.720;2023-06-14T01:12:11;6.22;;;4.90;;
41514;SDS011;27247;48.020;16.720;2023-06-14T01:16:27;5.88;;;4.40;;
41514;SDS011;27247;48.020;16.720;2023-06-14T01:20:39;6.88;;;4.30;;
41514;SDS011;27247;48.020;16.720;2023-06-14T01:24:49;7.10;;;4.88;;
41514;SDS011;27247;48.020;16.720;2023-06-14T01:29:00;6.63;;;4.40;;
41514;SDS011;27247;48.020;16.720;2023-06-14T01:33:12;8.65;;;5.15;;
41514;SDS011;27247;48.020;16.720;2023-06-14T01:37:27;6.82;;;4.95;;
41514;SDS011;27247;48.020;16.720;2023-06-14T01:41:39;8.90;;;5.35;;
41514;SDS011;27247;48.020;16.720;2023-06-14T01:45:50;7.03;;;4.93;;
41514;SDS011;27247;48.020;16.720;2023-06-14T01:50:03;9.45;;;5.00;;
41514;SDS011;27247;48.020;16.720;2023-06-14T01:54:14;8.35;;;5.68;;
41514;SDS011;27247;48.020;16.720;2023-06-14T01:58:24;10.00;;;5.80;;
41514;SDS011;27247;48.020;16.720;2023-06-14T02:02:36;7.03;;;5.60;;
41514;SDS011;27247;48.020;16.720;2023-06-14T02:06:46;9.02;;;6.53;;
41514;SDS011;27247;48.020;16.720;2023-06-14T02:10:56;9.40;;;5.37;;
41514;SDS011;27247;48.020;16.720;2023-06-14T02:15:07;12.75;;;5.30;;
41514;SDS011;27247;48.020;16.720;2023-06-14T02:19:18;9.13;;;6.40;;
41514;SDS011;27247;48.020;16.720;2023-06-14T02:23:30;10.00;;;5.95;;
41514;SDS011;27247;48.020;16.720;2023-06-14T02:27:42;7.32;;;5.65;;
41514;SDS011;27247;48.020;16.720;2023-06-14T02:31:52;10.47;;;5.73;;
41514;SDS011;27247;48.020;16.720;2023-06-14T02:36:02;8.15;;;6.38;;
41514;SDS011;27247;48.020;16.720;2023-06-14T02:40:13;7.95;;;5.95;;
41514;SDS011;27247;48.020;16.720;2023-06-14T02:44:24;7.95;;;6.13;;
41514;SDS011;27247;48.020;16.720;2023-06-14T02:48:37;8.73;;;6.60;;
41514;SDS011;27247;48.020;16.720;2023-06-14T02:52:47;13.03;;;7.37;;
41514;SDS011;27247;48.020;16.720;2023-06-14T02:56:57;11.33;;;7.30;;
41514;SDS011;27247;48.020;16.720;2023-06-14T03:01:08;9.77;;;7.40;;
41514;SDS011;27247;48.020;16.720;2023-06-14T03:05:20;11.73;;;7.57;;
41514;SDS011;27247;48.020;16.720;2023-06-14T03:09:31;14.27;;;7.53;;
41514;SDS011;27247;48.020;16.720;2023-06-14T03:13:41;13.00;;;8.03;;
41514;SDS011;27247;48.020;16.720;2023-06-14T03:17:51;11.37;;;7.27;;
41514;SDS011;27247;48.020;16.720;2023-06-14T03:22:03;12.00;;;7.70;;
41514;SDS011;27247;48.020;16.720;2023-06-14T03:26:14;14.27;;;8.15;;
41514;SDS011;27247;48.020;16.720;2023-06-14T03:30:27;11.30;;;7.63;;
41514;SDS011;27247;48.020;16.720;2023-06-14T03:34:38;11.30;;;8.20;;
41514;SDS011;27247;48.020;16.720;2023-06-14T03:38:48;13.35;;;8.13;;
41514;SDS011;27247;48.020;16.720;2023-06-14T03:42:59;11.45;;;7.30;;
41514;SDS011;27247;48.020;16.720;2023-06-14T03:47:10;11.13;;;7.30;;
41514;SDS011;27247;48.020;16.720;2023-06-14T03:51:20;14.18;;;7.30;;
41514;SDS011;27247;48.020;16.720;2023-06-14T03:55:30;10.37;;;7.10;;
41514;SDS011;27247;48.020;16.720;2023-06-14T03:59:41;16.75;;;9.23;;
41514;SDS011;27247;48.020;16.720;2023-06-14T04:03:51;16.27;;;8.60;;
41514;SDS011;27247;48.020;16.720;2023-06-14T04:08:01;11.55;;;7.10;;
41514;SDS011;27247;48.020;16.720;2023-06-14T04:12:12;9.33;;;7.03;;
41514;SDS011;27247;48.020;16.720;2023-06-14T04:16:22;12.50;;;9.27;;
41514;SDS011;27247;48.020;16.720;2023-06-14T04:20:33;9.52;;;7.68;;
41514;SDS011;27247;48.020;16.720;2023-06-14T04:24:44;13.07;;;8.70;;
41514;SDS011;27247;48.020;16.720;2023-06-14T04:28:56;12.88;;;7.50;;
41514;SDS011;27247;48.020;16.720;2023-06-14T04:33:06;12.68;;;7.55;;
41514;SDS011;27247;48.020;16.720;2023-06-14T04:37:17;10.25;;;7.40;;
41514;SDS011;27247;48.020;16.720;2023-06-14T04:41:29;12.68;;;7.15;;
41514;SDS011;27247;48.020;16.720;2023-06-14T04:45:40;11.32;;;6.75;;
41514;SDS011;27247;48.020;16.720;2023-06-14T04:49:51;13.07;;;7.60;;
41514;SDS011;27247;48.020;16.720;2023-06-14T04:54:02;12.27;;;7.63;;
41514;SDS011;27247;48.020;16.720;2023-06-14T04:58:15;10.32;;;7.57;;
41514;SDS011;27247;48.020;16.720;2023-06-14T05:02:25;8.40;;;6.50;;
41514;SDS011;27247;48.020;16.720;2023-06-14T05:06:36;12.23;;;5.93;;
41514;SDS011;27247;48.020;16.720;2023-06-14T05:10:46;7.25;;;5.93;;
41514;SDS011;27247;48.020;16.720;2023-06-14T05:14:57;8.88;;;6.28;;
41514;SDS011;27247;48.020;16.720;2023-06-14T05:19:08;12.07;;;6.50;;
41514;SDS011;27247;48.020;16.720;2023-06-14T05:23:20;12.45;;;6.50;;
41514;SDS011;27247;48.020;16.720;2023-06-14T05:27:30;10.93;;;5.78;;
41514;SDS011;27247;48.020;16.720;2023-06-14T05:31:41;8.32;;;5.05;;
41514;SDS011;27247;48.020;16.720;2023-06-14T05:35:51;8.45;;;6.57;;
41514;SDS011;27247;48.020;16.720;2023-06-14T05:40:02;9.40;;;6.30;;
41514;SDS011;27247;48.020;16.720;2023-06-14T05:44:15;7.28;;;6.15;;
41514;SDS011;27247;48.020;16.720;2023-06-14T05:48:25;7.93;;;6.03;;
41514;SDS011;27247;48.020;16.720;2023-06-14T05:52:36;9.38;;;6.28;;
41514;SDS011;27247;48.020;16.720;2023-06-14T05:56:49;9.80;;;6.15;;
41514;SDS011;27247;48.020;16.720;2023-06-14T06:00:59;10.75;;;6.90;;
41514;SDS011;27247;48.020;16.720;2023-06-14T06:05:11;8.43;;;6.53;;
41514;SDS011;27247;48.020;16.720;2023-06-14T06:09:22;8.50;;;6.25;;
41514;SDS011;27247;48.020;16.720;2023-06-14T06:13:33;8.05;;;6.35;;
41514;SDS011;27247;48.020;16.720;2023-06-14T06:17:43;8.18;;;6.18;;
41514;SDS011;27247;48.020;16.720;2023-06-14T06:21:54;8.70;;;5.53;;
41514;SDS011;27247;48.020;16.720;2023-06-14T06:26:04;12.03;;;5.87;;
41514;SDS011;27247;48.020;16.720;2023-06-14T06:30:15;6.63;;;5.63;;
41514;SDS011;27247;48.020;16.720;2023-06-14T06:34:26;9.32;;;5.32;;
41514;SDS011;27247;48.020;16.720;2023-06-14T06:38:37;7.40;;;5.15;;
41514;SDS011;27247;48.020;16.720;2023-06-14T06:42:47;10.02;;;4.93;;
41514;SDS011;27247;48.020;16.720;2023-06-14T06:46:58;9.73;;;4.97;;
41514;SDS011;27247;48.020;16.720;2023-06-14T06:51:08;8.95;;;4.78;;
41514;SDS011;27247;48.020;16.720;2023-06-14T06:55:19;7.50;;;4.77;;
41514;SDS011;27247;48.020;16.720;2023-06-14T06:59:29;6.38;;;4.15;;
41514;SDS011;27247;48.020;16.720;2023-06-14T07:03:40;8.00;;;4.75;;
41514;SDS011;27247;48.020;16.720;2023-06-14T07:07:50;9.13;;;4.30;;
41514;SDS011;27247;48.020;16.720;2023-06-14T07:12:00;5.68;;;3.85;;
41514;SDS011;27247;48.020;16.720;2023-06-14T07:16:11;8.10;;;4.28;;
41514;SDS011;27247;48.020;16.720;2023-06-14T07:20:21;12.07;;;4.73;;
41514;SDS011;27247;48.020;16.720;2023-06-14T07:24:34;6.65;;;3.78;;
41514;SDS011;27247;48.020;16.720;2023-06-14T07:28:46;6.15;;;3.38;;
41514;SDS011;27247;48.020;16.720;2023-06-14T07:32:58;6.03;;;3.45;;
41514;SDS011;27247;48.020;16.720;2023-06-14T07:37:09;8.52;;;3.65;;
41514;SDS011;27247;48.020;16.720;2023-06-14T07:41:19;5.18;;;3.97;;
41514;SDS011;27247;48.020;16.720;2023-06-14T07:45:29;6.40;;;3.80;;
41514;SDS011;27247;48.020;16.720;2023-06-14T07:49:40;4.63;;;3.50;;
41514;SDS011;27247;48.020;16.720;2023-06-14T07:53:50;4.00;;;3.60;;
41514;SDS011;27247;48.020;16.720;2023-06-14T07:58:01;4.87;;;3.73;;
41514;SDS011;27247;48.020;16.720;2023-06-14T08:02:11;5.40;;;3.60;;
41514;SDS011;27247;48.020;16.720;2023-06-14T08:06:21;5.07;;;3.40;;
41514;SDS011;27247;48.020;16.720;2023-06-14T08:10:32;6.75;;;3.88;;
41514;SDS011;27247;48.020;16.720;2023-06-14T08:14:42;4.57;;;3.45;;
41514;SDS011;27247;48.020;16.720;2023-06-14T08:18:53;5.82;;;3.90;;
41514;SDS011;27247;48.020;16.720;2023-06-14T08:23:05;6.80;;;4.18;;
41514;SDS011;27247;48.020;16.720;2023-06-14T08:27:16;5.88;;;3.97;;
41514;SDS011;27247;48.020;16.720;2023-06-14T08:31:26;4.97;;;3.58;;
41514;SDS011;27247;48.020;16.720;2023-06-14T08:35:37;7.28;;;3.60;;
41514;SDS011;27247;48.020;16.720;2023-06-14T08:39:49;5.68;;;4.10;;
41514;SDS011;27247;48.020;16.720;2023-06-14T08:44:00;4.75;;;2.92;;
41514;SDS011;27247;48.020;16.720;2023-06-14T08:48:10;5.57;;;3.03;;
41514;SDS011;27247;48.020;16.720;2023-06-14T08:52:21;5.20;;;3.50;;
41514;SDS011;27247;48.020;16.720;2023-06-14T08:56:32;5.75;;;3.30;;
41514;SDS011;27247;48.020;16.720;2023-06-14T09:00:44;5.88;;;3.20;;
41514;SDS011;27247;48.020;16.720;2023-06-14T09:04:54;9.82;;;4.20;;
41514;SDS011;27247;48.020;16.720;2023-06-14T09:09:09;7.18;;;3.70;;
41514;SDS011;27247;48.020;16.720;2023-06-14T09:13:19;5.53;;;2.83;;
41514;SDS011;27247;48.020;16.720;2023-06-14T09:17:30;3.88;;;2.92;;
41514;SDS011;27247;48.020;16.720;2023-06-14T09:21:43;3.90;;;3.03;;
41514;SDS011;27247;48.020;16.720;2023-06-14T09:25:57;4.20;;;3.03;;
41514;SDS011;27247;48.020;16.720;2023-06-14T09:30:11;6.60;;;2.77;;
41514;SDS011;27247;48.020;16.720;2023-06-14T09:34:22;4.15;;;3.30;;
41514;SDS011;27247;48.020;16.720;2023-06-14T09:38:34;4.35;;;2.95;;
41514;SDS011;27247;48.020;16.720;2023-06-14T09:42:44;5.40;;;2.85;;
41514;SDS011;27247;48.020;16.720;2023-06-14T09:46:55;5.93;;;3.28;;
41514;SDS011;27247;48.020;16.720;2023-06-14T09:51:06;5.07;;;3.10;;
41514;SDS011;27247;48.020;16.720;2023-06-14T09:55:16;4.85;;;3.47;;
41514;SDS011;27247;48.020;16.720;2023-06-14T09:59:29;4.80;;;2.65;;
41514;SDS011;27247;48.020;16.720;2023-06-14T10:03:42;3.83;;;3.00;;
41514;SDS011;27247;48.020;16.720;2023-06-14T10:08:00;5.45;;;2.83;;
41514;SDS011;27247;48.020;16.720;2023-06-14T10:12:20;8.55;;;3.10;;
41514;SDS011;27247;48.020;16.720;2023-06-14T10:16:32;3.35;;;2.88;;
41514;SDS011;27247;48.020;16.720;2023-06-14T10:25:07;7.50;;;2.90;;
41514;SDS011;27247;48.020;16.720;2023-06-14T10:29:21;3.63;;;3.25;;
41514;SDS011;27247;48.020;16.720;2023-06-14T10:33:32;7.35;;;3.20;;
41514;SDS011;27247;48.020;16.720;2023-06-14T10:37:46;4.82;;;3.20;;
41514;SDS011;27247;48.020;16.720;2023-06-14T10:41:57;6.95;;;3.10;;
41514;SDS011;27247;48.020;16.720;2023-06-14T10:46:12;15.18;;;4.10;;
41514;SDS011;27247;48.020;16.720;2023-06-14T10:50:27;4.47;;;3.22;;
41514;SDS011;27247;48.020;16.720;2023-06-14T10:54:55;3.22;;;2.88;;
41514;SDS011;27247;48.020;16.720;2023-06-14T10:59:16;4.10;;;3.05;;
41514;SDS011;27247;48.020;16.720;2023-06-14T11:03:43;3.15;;;2.70;;
41514;SDS011;27247;48.020;16.720;2023-06-14T11:12:36;5.20;;;3.00;;
41514;SDS011;27247;48.020;16.720;2023-06-14T11:16:50;3.28;;;2.72;;
41514;SDS011;27247;48.020;16.720;2023-06-14T11:21:00;3.80;;;2.25;;
41514;SDS011;27247;48.020;16.720;2023-06-14T11:25:11;9.13;;;3.67;;
41514;SDS011;27247;48.020;16.720;2023-06-14T11:29:22;6.05;;;2.90;;
41514;SDS011;27247;48.020;16.720;2023-06-14T11:33:32;4.37;;;2.90;;
41514;SDS011;27247;48.020;16.720;2023-06-14T11:37:43;7.47;;;2.83;;
41514;SDS011;27247;48.020;16.720;2023-06-14T11:41:54;3.50;;;2.92;;
41514;SDS011;27247;48.020;16.720;2023-06-14T11:46:11;4.47;;;3.45;;
41514;SDS011;27247;48.020;16.720;2023-06-14T11:50:24;7.35;;;3.30;;
41514;SDS011;27247;48.020;16.720;2023-06-14T11:54:35;6.18;;;2.95;;
41514;SDS011;27247;48.020;16.720;2023-06-14T11:58:46;3.75;;;2.78;;
41514;SDS011;27247;48.020;16.720;2023-06-14T12:02:57;5.80;;;3.15;;
41514;SDS011;27247;48.020;16.720;2023-06-14T12:07:11;10.20;;;3.50;;
41514;SDS011;27247;48.020;16.720;2023-06-14T12:11:28;6.18;;;3.30;;
41514;SDS011;27247;48.020;16.720;2023-06-14T12:15:41;6.00;;;3.33;;
41514;SDS011;27247;48.020;16.720;2023-06-14T12:19:52;8.80;;;2.90;;
41514;SDS011;27247;48.020;16.720;2023-06-14T12:24:03;4.53;;;3.10;;
41514;SDS011;27247;48.020;16.720;2023-06-14T12:28:13;5.32;;;3.28;;
41514;SDS011;27247;48.020;16.720;2023-06-14T12:32:24;5.73;;;3.13;;
41514;SDS011;27247;48.020;16.720;2023-06-14T12:36:34;4.45;;;3.00;;
41514;SDS011;27247;48.020;16.720;2023-06-14T12:40:50;5.60;;;3.50;;
41514;SDS011;27247;48.020;16.720;2023-06-14T12:45:00;6.13;;;3.30;;
41514;SDS011;27247;48.020;16.720;2023-06-14T12:49:11;6.35;;;3.78;;
41514;SDS011;27247;48.020;16.720;2023-06-14T12:53:21;8.82;;;3.30;;
41514;SDS011;27247;48.020;16.720;2023-06-14T12:57:33;5.05;;;3.28;;
41514;SDS011;27247;48.020;16.720;2023-06-14T13:01:46;4.30;;;2.67;;
41514;SDS011;27247;48.020;16.720;2023-06-14T13:06:00;4.03;;;2.75;;
41514;SDS011;27247;48.020;16.720;2023-06-14T13:10:11;4.43;;;2.95;;
41514;SDS011;27247;48.020;16.720;2023-06-14T13:14:21;7.05;;;2.95;;
41514;SDS011;27247;48.020;16.720;2023-06-14T13:18:32;5.70;;;3.08;;
41514;SDS011;27247;48.020;16.720;2023-06-14T13:22:44;4.55;;;2.55;;
41514;SDS011;27247;48.020;16.720;2023-06-14T13:26:55;5.18;;;2.72;;
41514;SDS011;27247;48.020;16.720;2023-06-14T13:31:05;4.45;;;3.40;;
41514;SDS011;27247;48.020;16.720;2023-06-14T13:35:16;3.60;;;3.10;;
41514;SDS011;27247;48.020;16.720;2023-06-14T13:39:26;7.10;;;2.80;;
41514;SDS011;27247;48.020;16.720;2023-06-14T13:43:37;5.77;;;3.40;;
41514;SDS011;27247;48.020;16.720;2023-06-14T13:47:47;4.20;;;3.00;;
41514;SDS011;27247;48.020;16.720;2023-06-14T13:51:58;5.25;;;3.22;;
41514;SDS011;27247;48.020;16.720;2023-06-14T13:56:08;4.60;;;2.85;;
41514;SDS011;27247;48.020;16.720;2023-06-14T14:00:19;5.13;;;3.20;;
41514;SDS011;27247;48.020;16.720;2023-06-14T14:04:29;4.65;;;2.83;;
41514;SDS011;27247;48.020;16.720;2023-06-14T14:08:40;5.43;;;3.33;;
41514;SDS011;27247;48.020;16.720;2023-06-14T14:12:51;4.05;;;2.80;;
41514;SDS011;27247;48.020;16.720;2023-06-14T14:17:02;4.63;;;2.88;;
41514;SDS011;27247;48.020;16.720;2023-06-14T14:21:13;3.90;;;2.90;;
41514;SDS011;27247;48.020;16.720;2023-06-14T14:25:24;4.07;;;2.88;;
41514;SDS011;27247;48.020;16.720;2023-06-14T14:29:34;3.03;;;2.53;;
41514;SDS011;27247;48.020;16.720;2023-06-14T14:33:45;3.60;;;2.60;;
41514;SDS011;27247;48.020;16.720;2023-06-14T14:37:56;3.63;;;2.37;;
41514;SDS011;27247;48.020;16.720;2023-06-14T14:42:07;3.25;;;2.95;;
41514;SDS011;27247;48.020;16.720;2023-06-14T14:46:17;3.50;;;2.55;;
41514;SDS011;27247;48.020;16.720;2023-06-14T14:50:28;6.20;;;2.75;;
41514;SDS011;27247;48.020;16.720;2023-06-14T14:54:39;12.82;;;3.15;;
41514;SDS011;27247;48.020;16.720;2023-06-14T14:58:49;2.70;;;2.50;;
41514;SDS011;27247;48.020;16.720;2023-06-14T15:03:00;4.13;;;2.92;;
41514;SDS011;27247;48.020;16.720;2023-06-14T15:07:10;4.20;;;2.87;;
41514;SDS011;27247;48.020;16.720;2023-06-14T15:11:21;4.72;;;2.90;;
41514;SDS011;27247;48.020;16.720;2023-06-14T15:15:31;3.35;;;2.63;;
41514;SDS011;27247;48.020;16.720;2023-06-14T15:19:42;8.18;;;3.13;;
41514;SDS011;27247;48.020;16.720;2023-06-14T15:23:52;4.93;;;2.70;;
41514;SDS011;27247;48.020;16.720;2023-06-14T15:28:03;7.07;;;3.10;;
41514;SDS011;27247;48.020;16.720;2023-06-14T15:32:16;7.70;;;2.80;;
41514;SDS011;27247;48.020;16.720;2023-06-14T15:36:27;3.70;;;2.37;;
41514;SDS011;27247;48.020;16.720;2023-06-14T15:40:37;5.63;;;2.40;;
41514;SDS011;27247;48.020;16.720;2023-06-14T15:44:47;3.33;;;2.73;;
41514;SDS011;27247;48.020;16.720;2023-06-14T15:48:58;4.93;;;3.10;;
41514;SDS011;27247;48.020;16.720;2023-06-14T15:53:08;3.07;;;2.30;;
41514;SDS011;27247;48.020;16.720;2023-06-14T15:57:18;3.73;;;2.80;;
41514;SDS011;27247;48.020;16.720;2023-06-14T16:01:28;5.60;;;2.77;;
41514;SDS011;27247;48.020;16.720;2023-06-14T16:05:39;5.63;;;2.83;;
41514;SDS011;27247;48.020;16.720;2023-06-14T16:09:49;5.82;;;3.15;;
41514;SDS011;27247;48.020;16.720;2023-06-14T16:14:00;4.65;;;2.83;;
41514;SDS011;27247;48.020;16.720;2023-06-14T16:18:10;3.42;;;2.90;;
41514;SDS011;27247;48.020;16.720;2023-06-14T16:22:21;3.80;;;3.13;;
41514;SDS011;27247;48.020;16.720;2023-06-14T16:26:31;4.37;;;2.87;;
41514;SDS011;27247;48.020;16.720;2023-06-14T16:30:41;5.17;;;2.93;;
41514;SDS011;27247;48.020;16.720;2023-06-14T16:34:51;3.60;;;3.00;;
41514;SDS011;27247;48.020;16.720;2023-06-14T16:39:02;4.20;;;2.70;;
41514;SDS011;27247;48.020;16.720;2023-06-14T16:43:12;4.43;;;2.80;;
41514;SDS011;27247;48.020;16.720;2023-06-14T16:47:23;3.55;;;2.92;;
41514;SDS011;27247;48.020;16.720;2023-06-14T16:51:33;6.83;;;3.07;;
41514;SDS011;27247;48.020;16.720;2023-06-14T16:55:44;5.43;;;2.90;;
41514;SDS011;27247;48.020;16.720;2023-06-14T16:59:54;5.30;;;2.88;;
41514;SDS011;27247;48.020;16.720;2023-06-14T17:04:04;4.13;;;3.40;;
41514;SDS011;27247;48.020;16.720;2023-06-14T17:08:15;5.33;;;3.43;;
41514;SDS011;27247;48.020;16.720;2023-06-14T17:12:25;3.67;;;3.25;;
41514;SDS011;27247;48.020;16.720;2023-06-14T17:16:35;5.67;;;2.87;;
41514;SDS011;27247;48.020;16.720;2023-06-14T17:20:46;5.25;;;3.33;;
41514;SDS011;27247;48.020;16.720;2023-06-14T17:24:56;6.63;;;3.10;;
41514;SDS011;27247;48.020;16.720;2023-06-14T17:29:06;8.60;;;4.07;;
41514;SDS011;27247;48.020;16.720;2023-06-14T17:33:17;5.33;;;4.37;;
41514;SDS011;27247;48.020;16.720;2023-06-14T17:37:27;6.07;;;4.65;;
41514;SDS011;27247;48.020;16.720;2023-06-14T17:41:38;7.93;;;4.67;;
41514;SDS011;27247;48.020;16.720;2023-06-14T17:45:48;10.02;;;4.95;;
41514;SDS011;27247;48.020;16.720;2023-06-14T17:49:58;11.15;;;4.75;;
41514;SDS011;27247;48.020;16.720;2023-06-14T17:54:11;7.45;;;4.40;;
41514;SDS011;27247;48.020;16.720;2023-06-14T17:58:22;6.10;;;4.53;;
41514;SDS011;27247;48.020;16.720;2023-06-14T18:02:32;10.15;;;5.20;;
41514;SDS011;27247;48.020;16.720;2023-06-14T18:06:42;8.03;;;4.93;;
41514;SDS011;27247;48.020;16.720;2023-06-14T18:10:53;5.95;;;4.43;;
41514;SDS011;27247;48.020;16.720;2023-06-14T18:15:03;8.63;;;4.55;;
41514;SDS011;27247;48.020;16.720;2023-06-14T18:19:14;8.32;;;4.82;;
41514;SDS011;27247;48.020;16.720;2023-06-14T18:23:27;5.95;;;4.20;;
41514;SDS011;27247;48.020;16.720;2023-06-14T18:27:37;7.70;;;4.55;;
41514;SDS011;27247;48.020;16.720;2023-06-14T18:31:47;11.57;;;4.90;;
41514;SDS011;27247;48.020;16.720;2023-06-14T18:35:58;7.30;;;5.23;;
41514;SDS011;27247;48.020;16.720;2023-06-14T18:40:08;8.35;;;4.70;;
41514;SDS011;27247;48.020;16.720;2023-06-14T18:44:19;10.65;;;4.88;;
41514;SDS011;27247;48.020;16.720;2023-06-14T18:48:30;9.03;;;5.13;;
41514;SDS011;27247;48.020;16.720;2023-06-14T18:52:40;7.60;;;5.10;;
41514;SDS011;27247;48.020;16.720;2023-06-14T18:56:51;6.47;;;4.85;;
41514;SDS011;27247;48.020;16.720;2023-06-14T19:01:01;6.57;;;5.10;;
41514;SDS011;27247;48.020;16.720;2023-06-14T19:05:12;7.05;;;4.93;;
41514;SDS011;27247;48.020;16.720;2023-06-14T19:09:22;8.80;;;5.00;;
41514;SDS011;27247;48.020;16.720;2023-06-14T19:13:35;10.40;;;6.28;;
41514;SDS011;27247;48.020;16.720;2023-06-14T19:17:56;6.45;;;5.35;;
41514;SDS011;27247;48.020;16.720;2023-06-14T19:22:08;8.55;;;5.45;;
41514;SDS011;27247;48.020;16.720;2023-06-14T19:26:18;9.57;;;5.22;;
41514;SDS011;27247;48.020;16.720;2023-06-14T19:30:28;9.13;;;5.90;;
41514;SDS011;27247;48.020;16.720;2023-06-14T19:34:39;10.33;;;5.80;;
41514;SDS011;27247;48.020;16.720;2023-06-14T19:38:55;10.90;;;5.40;;
41514;SDS011;27247;48.020;16.720;2023-06-14T19:43:06;6.22;;;5.25;;
41514;SDS011;27247;48.020;16.720;2023-06-14T19:47:17;7.45;;;5.82;;
41514;SDS011;27247;48.020;16.720;2023-06-14T19:51:27;8.30;;;6.37;;
41514;SDS011;27247;48.020;16.720;2023-06-14T19:55:37;10.27;;;5.67;;
41514;SDS011;27247;48.020;16.720;2023-06-14T19:59:48;7.35;;;5.63;;
41514;SDS011;27247;48.020;16.720;2023-06-14T20:03:58;9.10;;;5.55;;
41514;SDS011;27247;48.020;16.720;2023-06-14T20:08:09;8.07;;;5.85;;
41514;SDS011;27247;48.020;16.720;2023-06-14T20:12:19;10.98;;;6.00;;
41514;SDS011;27247;48.020;16.720;2023-06-14T20:16:30;6.88;;;5.68;;
41514;SDS011;27247;48.020;16.720;2023-06-14T20:20:40;7.35;;;5.57;;
41514;SDS011;27247;48.020;16.720;2023-06-14T20:24:53;8.48;;;5.75;;
41514;SDS011;27247;48.020;16.720;2023-06-14T20:29:04;8.05;;;5.55;;
41514;SDS011;27247;48.020;16.720;2023-06-14T20:33:14;10.65;;;5.57;;
41514;SDS011;27247;48.020;16.720;2023-06-14T20:37:25;8.32;;;5.85;;
41514;SDS011;27247;48.020;16.720;2023-06-14T20:41:36;12.02;;;5.95;;
41514;SDS011;27247;48.020;16.720;2023-06-14T20:45:46;7.23;;;5.37;;
41514;SDS011;27247;48.020;16.720;2023-06-14T20:49:57;8.05;;;5.78;;
41514;SDS011;27247;48.020;16.720;2023-06-14T20:54:07;9.23;;;6.00;;
41514;SDS011;27247;48.020;16.720;2023-06-14T20:58:18;7.30;;;5.83;;
41514;SDS011;27247;48.020;16.720;2023-06-14T21:02:29;10.20;;;5.57;;
41514;SDS011;27247;48.020;16.720;2023-06-14T21:06:39;8.87;;;5.37;;
41514;SDS011;27247;48.020;16.720;2023-06-14T21:10:50;7.15;;;5.35;;
41514;SDS011;27247;48.020;16.720;2023-06-14T21:15:00;9.70;;;5.07;;
41514;SDS011;27247;48.020;16.720;2023-06-14T21:19:11;9.50;;;5.85;;
41514;SDS011;27247;48.020;16.720;2023-06-14T21:23:21;8.60;;;5.63;;
41514;SDS011;27247;48.020;16.720;2023-06-14T21:27:31;11.23;;;6.20;;
41514;SDS011;27247;48.020;16.720;2023-06-14T21:31:42;10.25;;;6.28;;
41514;SDS011;27247;48.020;16.720;2023-06-14T21:35:52;7.60;;;6.07;;
41514;SDS011;27247;48.020;16.720;2023-06-14T21:40:03;10.98;;;6.80;;
41514;SDS011;27247;48.020;16.720;2023-06-14T21:44:13;9.20;;;6.57;;
41514;SDS011;27247;48.020;16.720;2023-06-14T21:48:24;9.27;;;6.67;;
41514;SDS011;27247;48.020;16.720;2023-06-14T21:52:34;10.23;;;6.88;;
41514;SDS011;27247;48.020;16.720;2023-06-14T21:56:44;10.10;;;6.68;;
41514;SDS011;27247;48.020;16.720;2023-06-14T22:00:55;11.50;;;7.28;;
41514;SDS011;27247;48.020;16.720;2023-06-14T22:05:06;12.63;;;8.50;;
41514;SDS011;27247;48.020;16.720;2023-06-14T22:09:17;14.43;;;7.85;;
41514;SDS011;27247;48.020;16.720;2023-06-14T22:13:27;15.25;;;7.95;;
41514;SDS011;27247;48.020;16.720;2023-06-14T22:17:42;9.18;;;7.00;;
41514;SDS011;27247;48.020;16.720;2023-06-14T22:21:53;13.35;;;6.35;;
41514;SDS011;27247;48.020;16.720;2023-06-14T22:26:07;8.30;;;6.10;;
41514;SDS011;27247;48.020;16.720;2023-06-14T22:30:19;9.20;;;6.65;;
41514;SDS011;27247;48.020;16.720;2023-06-14T22:34:30;9.75;;;7.38;;
41514;SDS011;27247;48.020;16.720;2023-06-14T22:38:43;8.00;;;6.25;;
41514;SDS011;27247;48.020;16.720;2023-06-14T22:42:56;12.15;;;7.20;;
41514;SDS011;27247;48.020;16.720;2023-06-14T22:47:07;11.27;;;6.88;;
41514;SDS011;27247;48.020;16.720;2023-06-14T22:51:20;11.32;;;6.45;;
41514;SDS011;27247;48.020;16.720;2023-06-14T22:55:32;10.93;;;6.15;;
41514;SDS011;27247;48.020;16.720;2023-06-14T22:59:42;7.28;;;6.15;;
41514;SDS011;27247;48.020;16.720;2023-06-14T23:03:52;11.37;;;7.30;;
41514;SDS011;27247;48.020;16.720;2023-06-14T23:08:03;10.70;;;6.38;;
41514;SDS011;27247;48.020;16.720;2023-06-14T23:12:13;9.43;;;5.93;;
41514;SDS011;27247;48.020;16.720;2023-06-14T23:16:24;10.70;;;6.82;;
41514;SDS011;27247;48.020;16.720;2023-06-14T23:20:34;9.75;;;6.90;;
41514;SDS011;27247;48.020;16.720;2023-06-14T23:24:45;11.68;;;6.55;;
41514;SDS011;27247;48.020;16.720;2023-06-14T23:28:56;9.90;;;6.07;;
41514;SDS011;27247;48.020;16.720;2023-06-14T23:33:07;9.55;;;6.22;;
41514;SDS011;27247;48.020;16.720;2023-06-14T23:37:18;10.57;;;6.78;;
41514;SDS011;27247;48.020;16.720;2023-06-14T23:41:28;9.47;;;7.00;;
41514;SDS011;27247;48.020;16.720;2023-06-14T23:45:42;8.13;;;6.60;;
41514;SDS011;27247;48.020;16.720;2023-06-14T23:49:56;11.48;;;6.75;;
41514;SDS011;27247;48.020;16.720;2023-06-14T23:54:07;11.20;;;7.45;;
41514;SDS011;27247;48.020;16.720;2023-06-14T23:58:22;8.60;;;6.68;;
